Time;durP1;ratioP1;P1;durP2;ratioP2;P2;SDS_P1;SDS_P2;PMS_P1;PMS_P2;Temp;Humidity;BMP_temperature;BMP_pressure;BME280_temperature;BME280_humidity;BME280_pressure;Samples;Min_cycle;Max_cycle;Signal;HPM_P1;HPM_P2
2022/12/07 00:01:28;;;;;;;9.30;5.25;;;;;;;-3.93;100.00;99876.96;1745564;82;21073;-66
2022/12/07 00:04:04;;;;;;;10.00;4.92;;;;;;;-3.94;100.00;99882.47;1745470;82;21047;-66
2022/12/07 00:06:27;;;;;;;8.30;5.17;;;;;;;-3.95;100.00;99877.66;1745109;82;21035;-66
2022/12/07 00:08:53;;;;;;;10.75;5.08;;;;;;;-3.93;100.00;99871.64;1745608;82;21032;-66
2022/12/07 00:11:21;;;;;;;10.35;5.15;;;;;;;-3.86;100.00;99877.11;1745950;82;21036;-67
2022/12/07 00:13:58;;;;;;;8.05;4.80;;;;;;;-3.85;100.00;99870.77;1681951;85;21116;-67
2022/12/07 00:16:27;;;;;;;8.85;5.45;;;;;;;-3.85;100.00;99868.11;1745666;82;21607;-67
2022/12/07 00:18:53;;;;;;;8.35;4.65;;;;;;;-3.87;100.00;99868.80;1681823;85;21526;-66
2022/12/07 00:21:22;;;;;;;8.68;4.62;;;;;;;-3.87;100.00;99863.48;1681603;85;21053;-67
2022/12/07 00:23:50;;;;;;;11.12;5.10;;;;;;;-3.84;100.00;99866.61;1681762;85;21020;-66
2022/12/07 00:26:24;;;;;;;9.30;4.87;;;;;;;-3.81;100.00;99865.42;1745564;82;21091;-66
2022/12/07 00:28:53;;;;;;;7.12;4.50;;;;;;;-3.82;100.00;99860.61;1744619;82;21071;-66
2022/12/07 00:31:21;;;;;;;9.13;4.45;;;;;;;-3.83;100.00;99856.31;1742925;82;21561;-66
2022/12/07 00:33:47;;;;;;;9.00;4.30;;;;;;;-3.82;100.00;99855.78;1742973;82;21024;-66
2022/12/07 00:36:17;;;;;;;10.05;5.05;;;;;;;-3.82;100.00;99851.80;1650730;86;21055;-67
2022/12/07 00:38:44;;;;;;;9.95;4.55;;;;;;;-3.79;100.00;99851.47;1742852;82;21094;-67
2022/12/07 00:41:14;;;;;;;7.35;4.33;;;;;;;-3.77;100.00;99850.27;1743232;82;21027;-67
2022/12/07 00:43:41;;;;;;;8.80;4.62;;;;;;;-3.78;100.00;99844.62;1742515;82;21110;-67
2022/12/07 00:46:08;;;;;;;7.78;4.35;;;;;;;-3.77;100.00;99846.78;1668620;85;21098;-67
2022/12/07 00:48:34;;;;;;;7.30;4.97;;;;;;;-3.79;100.00;99838.16;1741883;82;21110;-67
2022/12/07 00:51:01;;;;;;;9.73;5.08;;;;;;;-3.83;100.00;99833.70;1741954;82;21043;-67
2022/12/07 00:53:27;;;;;;;;;;;;;;;-3.82;100.00;99826.02;1670896;86;21990;-67
2022/12/07 00:55:55;;;;;;;8.03;4.67;;;;;;;-3.81;100.00;99825.03;1696577;84;20489;-67
2022/12/07 00:58:23;;;;;;;8.70;4.58;;;;;;;-3.83;100.00;99820.91;1741656;82;21607;-67
2022/12/07 01:00:49;;;;;;;8.75;5.00;;;;;;;-3.82;100.00;99815.39;1741824;82;21569;-67
2022/12/07 01:03:17;;;;;;;8.83;4.45;;;;;;;-3.79;100.00;99819.55;1741958;82;21028;-68
2022/12/07 01:05:52;;;;;;;;;;;;;;;-3.75;100.00;99819.48;1744443;82;21083;-67
2022/12/07 01:08:18;;;;;;;8.55;4.25;;;;;;;-3.78;100.00;99812.70;1741005;82;20158;-67
2022/12/07 02:23:12;;;;;;;24.55;12.23;;;;;;;-4.97;100.00;99744.98;1797780;79;22234;-66
2022/12/07 02:25:59;;;;;;;18.95;10.28;;;;;;;-4.87;100.00;99750.91;1751794;81;21106;-66
2022/12/07 02:28:34;;;;;;;16.35;8.13;;;;;;;-4.59;100.00;99747.28;1745943;82;21137;-67
2022/12/07 02:31:14;;;;;;;12.00;7.15;;;;;;;-4.39;100.00;99752.99;1751100;82;21038;-67
2022/12/07 02:33:45;;;;;;;15.13;7.08;;;;;;;-4.33;100.00;99745.64;1751712;82;21078;-66
2022/12/07 02:36:20;;;;;;;12.90;6.53;;;;;;;-4.24;100.00;99745.89;1751114;82;21656;-66
2022/12/07 02:38:57;;;;;;;11.00;6.53;;;;;;;-4.16;100.00;99745.34;1751288;81;21608;-66
2022/12/07 02:41:34;;;;;;;11.90;6.80;;;;;;;-4.11;100.00;99744.30;1751339;82;21565;-67
2022/12/07 02:44:04;;;;;;;12.68;7.22;;;;;;;-4.07;100.00;99744.77;1752704;81;20952;-66
2022/12/07 02:46:37;;;;;;;11.33;6.33;;;;;;;-4.00;100.00;99741.72;1752714;81;21011;-67
2022/12/07 02:49:03;;;;;;;14.43;7.30;;;;;;;-3.95;100.00;99743.36;1751848;82;20964;-66
2022/12/07 02:51:32;;;;;;;12.60;6.90;;;;;;;-3.94;100.00;99742.86;1752842;82;21018;-66
2022/12/07 02:53:58;;;;;;;12.23;7.50;;;;;;;-3.92;100.00;99735.02;1752948;82;21573;-66
2022/12/07 02:56:54;;;;;;;11.93;7.42;;;;;;;-3.89;100.00;99728.50;1752980;81;21490;-66
2022/12/07 02:59:48;;;;;;;15.18;7.75;;;;;;;-3.85;100.00;99730.63;1751725;81;21027;-66
2022/12/07 03:02:26;;;;;;;15.30;8.85;;;;;;;-3.82;100.00;99732.93;1751225;82;21102;-66
2022/12/07 03:05:35;;;;;;;12.15;7.35;;;;;;;-3.83;100.00;99733.95;1751477;82;21027;-66
2022/12/07 03:08:25;;;;;;;17.17;7.55;;;;;;;-3.78;100.00;99724.92;1751123;82;21059;-66
2022/12/07 03:11:03;;;;;;;15.93;7.85;;;;;;;-3.79;100.00;99717.14;1657443;86;21110;-66
2022/12/07 03:13:41;;;;;;;14.70;8.10;;;;;;;-3.78;100.00;99721.42;1659178;86;21139;-66
2022/12/07 03:16:33;;;;;;;14.80;8.13;;;;;;;-3.77;100.00;99715.94;1706343;82;21517;-66
2022/12/07 03:19:03;;;;;;;15.32;8.05;;;;;;;-3.75;100.00;99713.08;1752904;81;20939;-66
2022/12/07 03:21:46;;;;;;;17.62;7.95;;;;;;;-3.71;100.00;99705.06;1720542;82;21577;-66
2022/12/07 03:24:19;;;;;;;16.57;8.20;;;;;;;-3.71;100.00;99707.23;1739743;82;20932;-66
2022/12/07 03:26:49;;;;;;;14.58;8.30;;;;;;;-3.66;100.00;99706.20;1739652;82;21506;-66
2022/12/07 03:29:20;;;;;;;12.88;8.10;;;;;;;-3.62;100.00;99699.51;1739734;82;21008;-66
2022/12/07 03:31:50;;;;;;;13.18;8.38;;;;;;;-3.61;100.00;99691.83;1739471;82;21075;-66
2022/12/07 03:34:24;;;;;;;12.50;7.65;;;;;;;-3.61;100.00;99691.83;1739102;82;20980;-66
2022/12/07 03:36:56;;;;;;;12.50;7.20;;;;;;;-3.62;100.00;99687.53;1738909;82;21625;-66
2022/12/07 03:39:55;;;;;;;11.83;7.65;;;;;;;-3.62;100.00;99682.21;1739379;82;21558;-66
2022/12/07 03:42:21;;;;;;;14.07;8.40;;;;;;;-3.64;100.00;99678.06;1716669;82;21027;-66
2022/12/07 03:44:48;;;;;;;12.23;7.50;;;;;;;-3.66;100.00;99678.26;1739329;82;21405;-66
2022/12/07 03:47:36;;;;;;;15.15;7.65;;;;;;;-3.66;100.00;99675.59;1739124;82;21441;-66
2022/12/07 03:50:09;;;;;;;15.98;8.45;;;;;;;-3.65;100.00;99669.78;1739124;82;20996;-66
2022/12/07 03:52:46;;;;;;;13.08;7.83;;;;;;;-3.64;100.00;99668.75;1738993;82;21036;-66
2022/12/07 03:55:27;;;;;;;13.50;7.17;;;;;;;-3.63;100.00;99665.91;1735528;82;21062;-66
2022/12/07 03:58:04;;;;;;;12.20;7.70;;;;;;;-3.60;100.00;99663.39;1737678;82;21083;-66
2022/12/07 04:00:30;;;;;;;13.03;8.13;;;;;;;-3.58;100.00;99660.86;1739148;82;21086;-66
2022/12/07 04:02:57;;;;;;;14.47;7.70;;;;;;;-3.56;100.00;99666.84;1738949;82;21538;-66
2022/12/07 04:05:24;;;;;;;11.20;7.10;;;;;;;-3.52;100.00;99670.79;1718393;82;20972;-66
2022/12/07 04:07:51;;;;;;;13.65;7.37;;;;;;;-3.50;100.00;99658.61;1738770;82;21043;-67
2022/12/07 04:10:17;;;;;;;15.23;8.15;;;;;;;-3.51;100.00;99658.31;1739204;82;21498;-67
2022/12/07 04:12:44;;;;;;;14.47;8.15;;;;;;;-3.51;100.00;99652.99;1738809;82;21027;-66
2022/12/07 04:15:11;;;;;;;;;;;;;;;-3.50;100.00;99643.98;1741721;82;20980;-66
2022/12/07 04:17:38;;;;;;;13.50;7.53;;;;;;;-3.47;100.00;99649.46;1738943;82;20413;-66
2022/12/07 04:20:05;;;;;;;16.17;8.00;;;;;;;-3.53;100.00;99642.52;1739172;82;20972;-67
2022/12/07 04:22:32;;;;;;;17.02;8.40;;;;;;;-3.47;100.00;99642.81;1738750;82;21044;-66
2022/12/07 04:24:58;;;;;;;15.68;7.53;;;;;;;-3.44;100.00;99641.10;1739193;81;20941;-66
2022/12/07 04:27:25;;;;;;;14.28;7.60;;;;;;;-3.45;100.00;99632.79;1739058;82;21511;-66
2022/12/07 04:29:51;;;;;;;14.28;8.23;;;;;;;-3.44;100.00;99629.13;1723724;82;21388;-66
2022/12/07 04:32:17;;;;;;;14.93;8.00;;;;;;;-3.42;100.00;99625.77;1708432;84;21067;-66
2022/12/07 04:34:44;;;;;;;12.63;6.90;;;;;;;-3.40;100.00;99629.88;1708816;83;20983;-65
2022/12/07 04:37:10;;;;;;;15.45;7.78;;;;;;;-3.39;100.00;99627.55;1734592;82;21090;-66
2022/12/07 04:39:37;;;;;;;17.20;7.62;;;;;;;-3.35;100.00;99635.98;1738184;82;21585;-66
2022/12/07 04:42:03;;;;;;;15.53;7.87;;;;;;;-3.33;100.00;99631.33;1711268;82;21071;-66
2022/12/07 04:44:30;;;;;;;;;;;;;;;-3.32;100.00;99632.95;1714905;82;21558;-66
2022/12/07 04:46:56;;;;;;;17.20;8.28;;;;;;;-3.29;100.00;99632.58;1708106;84;20141;-66
2022/12/07 04:49:24;;;;;;;18.20;9.95;;;;;;;-3.30;100.00;99637.10;1709235;83;21035;-67
2022/12/07 04:51:50;;;;;;;15.13;7.00;;;;;;;-3.30;100.00;99637.10;1708953;83;21012;-66
2022/12/07 04:54:17;;;;;;;14.80;6.90;;;;;;;-3.26;100.00;99625.05;1688876;84;21023;-67
2022/12/07 04:56:44;;;;;;;14.43;7.20;;;;;;;-3.21;100.00;99629.82;1708615;84;21210;-67
2022/12/07 04:59:11;;;;;;;16.25;7.72;;;;;;;-3.18;100.00;99624.12;1708679;84;21588;-67
2022/12/07 05:01:38;;;;;;;15.32;6.67;;;;;;;-3.19;100.00;99630.48;1708898;83;21059;-66
2022/12/07 05:04:04;;;;;;;14.93;7.50;;;;;;;-3.20;100.00;99620.33;1709163;84;20976;-66
2022/12/07 05:06:31;;;;;;;15.55;6.97;;;;;;;-3.20;100.00;99622.99;1688931;84;21059;-66
2022/12/07 05:08:57;;;;;;;15.08;7.17;;;;;;;-3.18;100.00;99624.12;1688994;84;20948;-65
2022/12/07 05:11:39;;;;;;;14.20;6.58;;;;;;;-3.16;100.00;99610.96;1710228;82;21082;-66
2022/12/07 05:14:10;;;;;;;13.75;6.58;;;;;;;-3.16;100.00;99619.45;1719139;82;21051;-65
2022/12/07 05:16:37;;;;;;;12.43;6.10;;;;;;;-3.20;100.00;99616.84;1719264;82;21486;-65
2022/12/07 05:19:03;;;;;;;;;;;;;;;-3.15;100.00;99618.42;1711924;84;20988;-65
2022/12/07 05:21:30;;;;;;;14.87;6.08;;;;;;;-3.13;100.00;99625.23;1712442;83;20109;-64
2022/12/07 05:23:57;;;;;;;14.15;6.25;;;;;;;-3.19;100.00;99619.30;1723350;83;20992;-65
2022/12/07 05:26:24;;;;;;;11.93;6.10;;;;;;;-3.16;100.00;99612.80;1723026;83;21491;-65
2022/12/07 05:28:52;;;;;;;15.23;7.47;;;;;;;-3.16;100.00;99622.12;1723305;83;20979;-66
2022/12/07 05:31:32;;;;;;;16.97;5.87;;;;;;;-3.14;100.00;99622.74;1723064;83;20995;-66
2022/12/07 05:33:53;;;;;;;13.30;6.12;;;;;;;-3.12;100.00;99614.08;1715358;83;20991;-65
2022/12/07 05:36:20;;;;;;;12.15;5.97;;;;;;;-3.10;100.00;99604.05;1724992;82;20975;-66
2022/12/07 05:38:46;;;;;;;13.05;6.83;;;;;;;-3.10;100.00;99609.38;1750931;82;21031;-66
2022/12/07 05:43:59;;;;;;;14.87;7.20;;;;;;;-3.10;100.00;99618.20;1734987;82;20977;-65
2022/12/07 05:46:26;;;;;;;12.58;6.20;;;;;;;-3.08;100.00;99617.48;1737444;82;21074;-65
2022/12/07 05:48:52;;;;;;;13.30;6.65;;;;;;;-3.08;100.00;99615.33;1735132;81;21070;-66
2022/12/07 05:51:19;;;;;;;;;;;;;;;-3.07;100.00;99616.98;1737597;82;20995;-65
2022/12/07 05:53:45;;;;;;;13.22;5.85;;;;;;;-3.07;100.00;99619.15;1736845;82;20137;-66
2022/12/07 05:56:12;;;;;;;11.25;5.72;;;;;;;-3.10;100.00;99619.53;1741204;82;21014;-66
2022/12/07 06:01:23;;;;;;;10.82;5.70;;;;;;;-3.07;100.00;99619.65;1751405;82;21062;-66
2022/12/07 06:03:49;;;;;;;11.85;5.28;;;;;;;-3.04;100.00;99609.95;1736739;82;21002;-66
2022/12/07 06:06:16;;;;;;;;;;;;;;;-3.02;100.00;99610.61;1723500;83;21312;-65
2022/12/07 06:08:42;;;;;;;12.65;5.45;;;;;;;-3.02;100.00;99615.43;1720378;83;20152;-66
2022/12/07 06:13:53;;;;;;;12.30;5.83;;;;;;;-3.04;100.00;99620.10;1721386;83;21005;-65
2022/12/07 06:16:20;;;;;;;11.95;5.90;;;;;;;-2.99;100.00;99617.39;1721679;83;21862;-65
2022/12/07 06:18:46;;;;;;;12.37;5.67;;;;;;;-2.96;100.00;99618.34;1721591;83;21102;-65
2022/12/07 09:56:19;;;;;;;31.90;16.80;;;;;;;-2.77;100.00;99507.17;1817077;79;22961;-64
2022/12/07 09:58:45;;;;;;;22.73;13.53;;;;;;;-2.65;100.00;99509.62;1770174;80;21070;-64
2022/12/07 10:01:17;;;;;;;;;;;;;;;-2.37;100.00;99514.98;1766125;81;21533;-64
2022/12/07 10:03:54;;;;;;;19.15;9.08;;;;;;;-2.17;100.00;99503.44;1763459;81;20098;-64
2022/12/07 10:06:20;;;;;;;25.12;10.70;;;;;;;-2.07;100.00;99505.23;1763742;81;21485;-64
2022/12/07 10:08:47;;;;;;;13.88;8.20;;;;;;;-2.01;100.00;99499.61;1763585;81;20983;-64
2022/12/07 10:11:15;;;;;;;16.57;9.10;;;;;;;-1.89;100.00;99502.56;1763340;81;21018;-64
2022/12/07 10:13:48;;;;;;;17.07;8.70;;;;;;;-1.78;100.00;99501.50;1763276;81;21572;-64
2022/12/07 10:16:34;;;;;;;14.60;8.95;;;;;;;-1.75;100.00;99506.94;1763643;81;21033;-64
2022/12/07 10:19:20;;;;;;;15.00;9.15;;;;;;;-1.64;100.00;99501.03;1762745;81;21533;-64
2022/12/07 10:22:13;;;;;;;17.67;9.20;;;;;;;-1.56;100.00;99503.55;1763809;81;20971;-64
2022/12/07 10:24:42;;;;;;;23.42;10.68;;;;;;;-1.55;100.00;99501.99;1763659;81;21485;-64
2022/12/07 10:27:21;;;;;;;14.60;8.70;;;;;;;-1.46;100.00;99507.16;1763682;81;21014;-64
2022/12/07 10:29:50;;;;;;;17.07;9.53;;;;;;;-1.45;100.00;99498.94;1763310;81;20986;-64
2022/12/07 10:32:31;;;;;;;15.88;9.40;;;;;;;-1.42;100.00;99505.75;1763741;81;21034;-64
2022/12/07 10:35:19;;;;;;;18.17;10.58;;;;;;;-1.35;100.00;99504.75;1763348;81;21014;-64
2022/12/07 10:37:46;;;;;;;16.40;9.73;;;;;;;-1.39;100.00;99502.16;1763612;81;20999;-64
2022/12/07 10:40:27;;;;;;;18.55;10.03;;;;;;;-1.37;100.00;99501.95;1762779;81;21042;-64
2022/12/07 10:43:13;;;;;;;16.52;9.60;;;;;;;-1.34;100.00;99490.86;1759587;81;21094;-64
2022/12/07 10:46:20;;;;;;;15.35;9.60;;;;;;;-1.35;100.00;99494.58;1761028;81;21117;-64
2022/12/07 10:48:58;;;;;;;17.57;9.68;;;;;;;-1.28;100.00;99495.42;1761816;81;21086;-64
2022/12/07 10:51:36;;;;;;;19.15;10.65;;;;;;;-1.29;100.00;99493.77;1762004;81;21082;-64
2022/12/07 10:54:08;;;;;;;15.60;9.40;;;;;;;-1.32;100.00;99496.33;1762348;81;21089;-64
2022/12/07 10:56:52;;;;;;;16.27;10.15;;;;;;;-1.25;100.00;99500.35;1762412;81;21055;-64
2022/12/07 10:59:48;;;;;;;19.82;9.45;;;;;;;-1.25;100.00;99500.35;1752155;81;21101;-63
2022/12/07 11:02:42;;;;;;;15.25;9.80;;;;;;;-1.30;100.00;99486.77;1757600;81;21094;-63
2022/12/07 11:05:40;;;;;;;16.55;9.28;;;;;;;-1.26;100.00;99490.17;1762356;81;21089;-63
2022/12/07 11:08:19;;;;;;;;;;;;;;;-1.28;100.00;99492.75;1764298;81;21129;-63
2022/12/07 11:11:11;;;;;;;16.37;9.55;;;;;;;-1.30;100.00;99486.26;1761509;81;20423;-63
2022/12/07 11:14:05;;;;;;;17.62;9.48;;;;;;;-1.29;100.00;99480.41;1761751;80;21082;-63
2022/12/07 11:16:56;;;;;;;16.25;9.33;;;;;;;-1.32;100.00;99482.98;1761658;81;21085;-63
2022/12/07 11:27:02;;;;;;;19.30;11.20;;;;;;;-1.13;100.00;99465.33;1800227;79;22963;-64
2022/12/07 11:30:23;;;;;;;14.90;9.15;;;;;;;-1.18;100.00;99479.83;1729610;82;21576;-64
2022/12/07 11:33:11;;;;;;;14.70;8.98;;;;;;;-1.20;100.00;99477.84;1667492;86;21125;-64
2022/12/07 11:35:43;;;;;;;17.57;9.23;;;;;;;-1.13;100.00;99471.50;1730107;83;22232;-64
2022/12/07 11:38:15;;;;;;;16.87;10.18;;;;;;;-1.14;100.00;99471.72;1730722;82;21145;-64
2022/12/07 11:40:45;;;;;;;18.00;10.65;;;;;;;-1.16;100.00;99473.75;1730778;82;21058;-64
2022/12/07 11:43:27;;;;;;;18.55;10.35;;;;;;;-1.10;100.00;99475.63;1730898;83;21031;-63
2022/12/07 11:46:04;;;;;;;13.60;9.05;;;;;;;-1.11;100.00;99469.47;1729795;83;21074;-63
2022/12/07 11:48:36;;;;;;;13.28;8.33;;;;;;;-1.11;100.00;99472.64;1725478;82;21102;-63
2022/12/07 11:51:04;;;;;;;13.13;8.20;;;;;;;-1.05;100.00;99470.48;1696831;84;21115;-64
2022/12/07 11:53:49;;;;;;;13.68;9.43;;;;;;;-1.03;100.00;99470.58;1696854;84;21093;-64
2022/12/07 11:56:21;;;;;;;12.50;8.30;;;;;;;-1.03;100.00;99475.13;1697109;84;21128;-63
2022/12/07 11:58:53;;;;;;;15.75;8.83;;;;;;;-0.96;100.00;99473.80;1697303;84;21117;-64
2022/12/07 12:01:56;;;;;;;15.95;9.23;;;;;;;-0.91;100.00;99475.33;1697537;84;21061;-64
2022/12/07 12:04:45;;;;;;;17.12;8.85;;;;;;;-0.89;100.00;99485.31;1697559;84;21054;-64
2022/12/07 12:07:15;;;;;;;17.65;9.28;;;;;;;-0.95;100.00;99477.59;1697631;84;21053;-64
2022/12/07 12:10:02;;;;;;;12.70;8.55;;;;;;;-0.93;100.00;99478.73;1697476;84;21085;-63
2022/12/07 12:13:04;;;;;;;14.13;9.28;;;;;;;-0.92;100.00;99469.70;1697494;84;21547;-64
2022/12/07 12:15:45;;;;;;;13.35;8.88;;;;;;;-0.98;100.00;99476.66;1696946;84;21128;-64
2022/12/07 12:18:45;;;;;;;14.70;8.78;;;;;;;-0.98;100.00;99472.66;1697110;84;21105;-63
2022/12/07 12:21:15;;;;;;;15.00;9.13;;;;;;;-0.93;100.00;99466.70;1666130;84;21125;-64
2022/12/07 12:23:53;;;;;;;16.07;8.83;;;;;;;-0.99;100.00;99474.21;1698669;84;21081;-63
2022/12/07 12:26:22;;;;;;;16.02;8.83;;;;;;;-1.02;100.00;99472.23;1692648;84;21061;-63
2022/12/07 12:29:05;;;;;;;15.43;8.58;;;;;;;-0.97;100.00;99471.64;1690878;85;21666;-64
2022/12/07 12:31:39;;;;;;;15.40;9.03;;;;;;;-0.95;100.00;99465.56;1725854;83;21002;-64
2022/12/07 12:34:40;;;;;;;15.85;8.78;;;;;;;-0.99;100.00;99470.20;1725878;83;21026;-64
2022/12/07 12:37:38;;;;;;;14.28;9.10;;;;;;;-0.97;100.00;99474.31;1723307;83;21510;-64
2022/12/07 12:40:23;;;;;;;13.58;8.65;;;;;;;-0.94;100.00;99467.22;1725642;82;21027;-65
2022/12/07 12:42:55;;;;;;;13.95;9.28;;;;;;;-0.99;100.00;99464.31;1725546;83;21087;-64
2022/12/07 12:45:31;;;;;;;12.95;9.73;;;;;;;-1.02;100.00;99466.06;1690485;85;21446;-64
2022/12/07 12:48:01;;;;;;;15.68;9.18;;;;;;;-0.97;100.00;99470.81;1690578;85;21053;-65
2022/12/07 17:47:01;;;;;;;41.55;24.00;;;;;;;-2.19;100.00;99440.12;1766936;79;23008;-71
2022/12/07 17:49:27;;;;;;;38.45;23.70;;;;;;;-2.11;100.00;99455.97;1741120;80;20959;-70
2022/12/07 17:54:39;;;;;;;31.05;19.77;;;;;;;-1.71;100.00;99452.15;1734530;82;21037;-74
2022/12/07 17:57:05;;;;;;;30.23;18.07;;;;;;;-1.53;100.00;99460.42;1734698;82;21042;-70
2022/12/07 17:59:32;;;;;;;;;;;;;;;-1.39;100.00;99453.27;1737233;81;21659;-70
2022/12/07 18:01:58;;;;;;;25.60;15.28;;;;;;;-1.27;100.00;99456.47;1731920;82;20477;-70
2022/12/07 18:04:24;;;;;;;;;;;;;;;-1.21;100.00;99453.02;1740637;82;21512;-70
2022/12/07 18:06:51;;;;;;;24.18;15.05;;;;;;;-1.12;100.00;99447.78;1751729;82;20539;-70
2022/12/07 18:09:20;;;;;;;30.97;19.07;;;;;;;-1.05;100.00;99447.78;1751581;82;21085;-70
2022/12/07 18:11:47;;;;;;;24.92;15.80;;;;;;;-1.02;100.00;99444.19;1745044;82;21058;-70
2022/12/07 18:14:15;;;;;;;27.93;16.12;;;;;;;-1.01;100.00;99445.02;1738707;82;21029;-70
2022/12/07 18:16:41;;;;;;;32.10;17.80;;;;;;;-0.96;100.00;99444.41;1737267;82;21392;-70
2022/12/07 18:19:09;;;;;;;18.17;12.37;;;;;;;-0.89;100.00;99444.72;1737562;82;20994;-72
2022/12/07 18:21:35;;;;;;;23.92;16.00;;;;;;;-0.85;100.00;99447.27;1738445;82;21010;-72
2022/12/07 18:24:03;;;;;;;;;;;;;;;-0.88;100.00;99442.34;1744947;82;20923;-71
2022/12/07 18:26:31;;;;;;;;;;;;;;;-0.86;100.00;99448.31;1743883;81;20109;-72
2022/12/07 18:29:00;;;;;;;24.00;13.88;;;;;;;-0.80;100.00;99448.83;1738189;80;20111;-72
2022/12/07 18:31:28;;;;;;;25.65;13.48;;;;;;;-0.80;100.00;99443.98;1740464;82;21066;-72
2022/12/07 18:33:57;;;;;;;19.02;12.15;;;;;;;-0.80;100.00;99443.98;1737427;82;20977;-72
2022/12/07 18:36:23;;;;;;;16.17;11.20;;;;;;;-0.81;100.00;99441.83;1740511;82;21014;-70
2022/12/07 18:38:50;;;;;;;16.80;11.10;;;;;;;-0.76;100.00;99427.85;1737830;82;20942;-70
2022/12/07 18:41:17;;;;;;;15.85;10.32;;;;;;;-0.67;100.00;99418.07;1726479;82;21097;-73
2022/12/07 18:43:44;;;;;;;15.35;10.70;;;;;;;-0.65;100.00;99421.37;1717446;82;21006;-73
2022/12/07 18:46:15;;;;;;;15.25;10.88;;;;;;;-0.69;100.00;99428.16;1697398;83;21070;-72
2022/12/07 18:48:42;;;;;;;15.50;10.30;;;;;;;-0.66;100.00;99429.08;1691056;84;21007;-72
2022/12/07 18:51:09;;;;;;;13.13;9.93;;;;;;;-0.60;100.00;99428.24;1690994;84;22047;-72
2022/12/07 18:53:36;;;;;;;13.38;9.55;;;;;;;-0.57;100.00;99434.51;1690976;85;21010;-72
2022/12/07 18:56:20;;;;;;;12.90;9.08;;;;;;;-0.62;100.00;99428.98;1691089;85;21098;-72
2022/12/07 19:01:38;;;;;;;12.93;8.48;;;;;;;-0.53;100.00;99428.23;1708327;83;21027;-71
2022/12/07 19:04:05;;;;;;;;;;;;;;;-0.54;100.00;99427.95;1696466;83;21102;-70
2022/12/07 19:06:32;;;;;;;13.03;9.50;;;;;;;-0.59;100.00;99428.56;1700777;82;20115;-70
2022/12/07 19:08:58;;;;;;;13.20;9.33;;;;;;;-0.66;100.00;99430.41;1709262;83;20975;-71
2022/12/07 19:14:14;;;;;;;13.40;8.78;;;;;;;-0.48;100.00;99436.47;1697863;83;20962;-70
2022/12/07 19:16:43;;;;;;;13.70;9.90;;;;;;;-0.53;100.00;99437.08;1702268;83;21081;-69
2022/12/07 19:19:09;;;;;;;11.50;8.45;;;;;;;-0.48;100.00;99451.17;1705136;83;20978;-69
2022/12/07 19:21:36;;;;;;;11.10;8.15;;;;;;;-0.37;100.00;99446.53;1705562;83;21568;-72
2022/12/07 19:24:03;;;;;;;11.43;8.80;;;;;;;-0.34;100.00;99445.28;1698205;83;21018;-70
2022/12/07 19:26:30;;;;;;;12.37;8.88;;;;;;;-0.34;100.00;99446.63;1707688;83;21033;-69
2022/12/07 19:28:57;;;;;;;11.10;8.28;;;;;;;-0.34;100.00;99444.77;1708500;83;21438;-70
2022/12/07 19:31:23;;;;;;;11.63;8.35;;;;;;;-0.27;100.00;99450.94;1709509;83;21660;-71
2022/12/07 19:33:49;;;;;;;10.93;7.97;;;;;;;-0.29;100.00;99448.17;1707343;83;21066;-70
2022/12/07 19:36:16;;;;;;;13.25;8.98;;;;;;;-0.35;100.00;99443.63;1705273;83;21014;-71
2022/12/07 19:38:42;;;;;;;12.05;8.45;;;;;;;-0.37;100.00;99440.36;1705211;83;20975;-70
2022/12/07 19:43:57;;;;;;;11.22;8.28;;;;;;;-0.30;100.00;99439.31;1699953;83;20971;-70
2022/12/07 19:46:24;;;;;;;11.95;8.55;;;;;;;-0.27;100.00;99443.42;1716974;82;21022;-69
2022/12/07 19:48:52;;;;;;;13.70;9.10;;;;;;;-0.30;100.00;99434.48;1699173;82;21023;-70
2022/12/07 19:51:18;;;;;;;;;;;;;;;-0.32;100.00;99437.89;1736946;82;21073;-69
2022/12/07 19:53:44;;;;;;;12.63;8.98;;;;;;;-0.28;100.00;99438.58;1724412;82;20123;-70
2022/12/07 19:56:18;;;;;;;13.15;9.05;;;;;;;-0.25;100.00;99438.70;1728885;82;21085;-71
2022/12/07 19:58:44;;;;;;;13.03;9.18;;;;;;;-0.24;100.00;99437.13;1725551;82;21051;-71
2022/12/07 20:01:10;;;;;;;12.60;9.00;;;;;;;-0.29;100.00;99431.61;1673899;85;21127;-70
2022/12/07 20:03:37;;;;;;;12.73;9.40;;;;;;;-0.33;100.00;99434.90;1674111;85;21630;-71
2022/12/07 20:06:13;;;;;;;12.45;8.78;;;;;;;-0.31;100.00;99436.84;1673568;85;21087;-71
2022/12/07 20:08:39;;;;;;;18.92;10.85;;;;;;;-0.24;100.00;99437.13;1671530;85;22165;-71
2022/12/07 20:13:51;;;;;;;14.18;9.28;;;;;;;-0.26;100.00;99429.02;1726975;82;21368;-70
2022/12/07 20:16:18;;;;;;;14.75;9.73;;;;;;;-0.31;100.00;99427.48;1729475;82;21481;-71
2022/12/07 20:18:44;;;;;;;14.25;9.15;;;;;;;-0.26;100.00;99433.03;1728650;82;21597;-70
2022/12/07 20:21:10;;;;;;;12.82;7.85;;;;;;;-0.20;100.00;99435.69;1728416;82;21028;-70
2022/12/07 20:23:37;;;;;;;11.35;8.08;;;;;;;-0.19;100.00;99438.68;1726978;82;21012;-71
2022/12/07 20:26:05;;;;;;;12.13;8.30;;;;;;;-0.26;100.00;99439.20;1727350;82;21880;-69
2022/12/07 20:28:32;;;;;;;10.43;8.20;;;;;;;-0.30;100.00;99435.30;1728288;82;20959;-70
2022/12/07 20:30:58;;;;;;;10.25;8.10;;;;;;;-0.24;100.00;99430.45;1727699;82;21590;-71
2022/12/07 20:33:26;;;;;;;12.00;8.73;;;;;;;-0.17;100.00;99436.60;1728135;82;21000;-70
2022/12/07 20:35:59;;;;;;;;;;;;;;;-0.18;100.00;99434.16;1729346;82;21044;-70
2022/12/07 20:38:27;;;;;;;12.82;8.60;;;;;;;-0.22;100.00;99444.45;1694462;84;20145;-69
2022/12/07 20:40:57;;;;;;;13.08;8.85;;;;;;;-0.31;100.00;99437.66;1668082;85;21970;-69
2022/12/07 20:43:23;;;;;;;14.40;8.90;;;;;;;-0.25;100.00;99442.17;1709235;82;20956;-71
2022/12/07 20:45:50;;;;;;;15.78;9.35;;;;;;;-0.17;100.00;99443.29;1727870;82;21134;-69
2022/12/07 20:48:16;;;;;;;;;;;;;;;-0.14;100.00;99445.55;1735878;82;21023;-69
2022/12/07 20:50:43;;;;;;;12.28;8.25;;;;;;;-0.22;100.00;99440.95;1735624;82;20134;-71
2022/12/07 20:53:09;;;;;;;13.68;8.35;;;;;;;-0.34;100.00;99447.95;1746615;82;21000;-70
2022/12/07 20:55:36;;;;;;;11.97;8.23;;;;;;;-0.31;100.00;99443.02;1746133;82;21095;-70
2022/12/07 20:58:03;;;;;;;14.38;8.55;;;;;;;-0.23;100.00;99448.16;1746217;82;21337;-70
2022/12/07 21:00:29;;;;;;;11.85;8.53;;;;;;;-0.24;100.00;99453.19;1746488;82;21079;-70
2022/12/07 21:02:56;;;;;;;12.70;9.48;;;;;;;-0.25;100.00;99458.77;1746408;82;21074;-71
2022/12/07 21:05:25;;;;;;;;;;;;;;;-0.26;100.00;99454.44;1749016;82;21051;-70
2022/12/07 21:07:52;;;;;;;13.48;8.60;;;;;;;-0.24;100.00;99445.16;1746257;82;20134;-70
2022/12/07 21:10:19;;;;;;;11.73;8.45;;;;;;;-0.22;100.00;99439.11;1746359;82;21600;-71
2022/12/07 21:12:45;;;;;;;12.95;9.45;;;;;;;-0.20;100.00;99440.21;1746274;82;21098;-71
2022/12/07 21:15:11;;;;;;;14.87;9.40;;;;;;;-0.25;100.00;99442.71;1746171;82;21075;-70
2022/12/07 21:17:38;;;;;;;14.40;9.00;;;;;;;-0.29;100.00;99445.49;1746353;82;21574;-70
2022/12/07 21:20:06;;;;;;;16.73;9.65;;;;;;;-0.27;100.00;99454.12;1746433;82;21007;-70
2022/12/07 21:22:33;;;;;;;15.08;9.35;;;;;;;-0.23;100.00;99449.48;1746013;82;22326;-70
2022/12/07 21:25:00;;;;;;;17.75;11.28;;;;;;;-0.19;100.00;99449.38;1746426;82;21067;-70
2022/12/07 21:27:26;;;;;;;19.48;11.10;;;;;;;-0.19;100.00;99441.87;1745989;82;21082;-71
2022/12/07 21:29:53;;;;;;;15.25;9.83;;;;;;;-0.22;100.00;99448.47;1746320;82;20996;-71
2022/12/07 21:32:19;;;;;;;17.35;9.90;;;;;;;-0.21;100.00;99450.09;1746292;82;21581;-71
2022/12/07 21:34:45;;;;;;;16.57;10.85;;;;;;;-0.14;100.00;99453.57;1746890;82;21043;-71
2022/12/07 21:37:12;;;;;;;17.70;11.03;;;;;;;-0.10;100.00;99449.95;1682514;85;21071;-71
2022/12/07 21:39:38;;;;;;;16.40;11.03;;;;;;;-0.14;100.00;99455.42;1682723;85;21503;-71
2022/12/07 21:42:04;;;;;;;15.83;10.75;;;;;;;-0.19;100.00;99445.88;1746219;82;21145;-71
2022/12/07 21:44:31;;;;;;;15.93;10.55;;;;;;;-0.16;100.00;99450.30;1682281;85;21047;-70
2022/12/07 21:46:59;;;;;;;15.58;10.65;;;;;;;-0.08;100.00;99451.92;1682237;85;21677;-70
2022/12/07 21:49:25;;;;;;;14.43;10.43;;;;;;;-0.03;100.00;99452.92;1682265;85;21570;-71
2022/12/07 21:51:52;;;;;;;19.62;10.90;;;;;;;-0.03;100.00;99449.42;1681833;85;21416;-71
2022/12/07 21:54:19;;;;;;;15.50;10.50;;;;;;;-0.07;100.00;99450.88;1682068;85;21079;-71
2022/12/07 21:56:45;;;;;;;17.23;10.95;;;;;;;-0.06;100.00;99457.88;1682204;85;21693;-71